| time (UTC) | temp F | wind direction | speed knots | gust knots | rain 1hr in | rain 24hr in | rain mn in | humidity % | barometer mb |
| 20260510094531 | 55 | 0.0 | 0.0 | 0.00 | 0.00 | 0.00 | 81 | 1030.3 | |
| 20260510093528 | 55 | 0.0 | 0.0 | 0.00 | 0.00 | 0.00 | 80 | 1030.3 | |
| 20260510092524 | 56 | 0.0 | 0.0 | 0.00 | 0.00 | 0.00 | 78 | 1030.3 | |
| 20260510091520 | 56 | 0.0 | 0.0 | 0.00 | 0.00 | 0.00 | 76 | 1030.2 | |
| 20260510090517 | 57 | 0.0 | 0.0 | 0.00 | 0.00 | 0.00 | 74 | 1029.9 | |
| 20260510085533 | 58 | 0.0 | 0.0 | 0.00 | 0.00 | 0.00 | 73 | 1029.9 | |
| 20260510084549 | 58 | 231 | 0.0 | 0.9 | 0.00 | 0.00 | 0.00 | 72 | 1029.8 |
| 20260510083525 | 59 | 231 | 0.0 | 1.7 | 0.00 | 0.00 | 0.00 | 72 | 1029.8 |
| 20260510082522 | 59 | 215 | 0.9 | 2.6 | 0.00 | 0.00 | 0.00 | 71 | 1029.7 |
| 20260510081518 | 59 | 234 | 0.9 | 1.7 | 0.00 | 0.00 | 0.00 | 70 | 1029.6 |
| 20260510080535 | 59 | 239 | 0.9 | 2.6 | 0.00 | 0.00 | 0.00 | 70 | 1029.6 |
| 20260510075531 | 59 | 214 | 0.9 | 1.7 | 0.00 | 0.00 | 0.00 | 70 | 1029.4 |
| 20260510074527 | 60 | 246 | 0.0 | 1.7 | 0.00 | 0.00 | 0.00 | 68 | 1029.3 |
| 20260510073523 | 61 | 218 | 0.9 | 1.7 | 0.00 | 0.00 | 0.00 | 66 | 1029.3 |
| 20260510072520 | 62 | 200 | 0.9 | 2.6 | 0.00 | 0.00 | 0.00 | 64 | 1029.2 |
| 20260510071536 | 62 | 247 | 0.0 | 1.7 | 0.00 | 0.00 | 0.00 | 65 | 1029.2 |
| 20260510070533 | 62 | 202 | 0.0 | 2.6 | 0.00 | 0.00 | 0.00 | 65 | 1029.2 |
| 20260510065529 | 62 | 211 | 0.9 | 2.6 | 0.00 | 0.00 | 0.00 | 64 | 1029.2 |
| 20260510064525 | 62 | 191 | 1.7 | 3.5 | 0.00 | 0.00 | 0.00 | 63 | 1029.2 |
| 20260510063542 | 62 | 204 | 1.7 | 3.5 | 0.00 | 0.00 | 0.00 | 63 | 1029.0 |
| 20260510062517 | 63 | 194 | 1.7 | 3.5 | 0.00 | 0.00 | 0.00 | 62 | 1029.0 |
| 20260510061534 | 64 | 224 | 1.7 | 3.5 | 0.00 | 0.00 | 0.00 | 60 | 1028.9 |
| 20260510060530 | 64 | 185 | 0.9 | 2.6 | 0.00 | 0.00 | 0.00 | 60 | 1028.9 |
| 20260510055527 | 65 | 224 | 0.9 | 2.6 | 0.00 | 0.00 | 0.00 | 59 | 1028.9 |
| 20260510054523 | 67 | 236 | 0.9 | 3.5 | 0.00 | 0.00 | 0.00 | 56 | 1028.8 |
| 20260510053519 | 65 | 274 | 0.9 | 1.7 | 0.00 | 0.00 | 0.00 | 59 | 1028.8 |
| 20260510052616 | 65 | 222 | 0.0 | 1.7 | 0.00 | 0.00 | 0.00 | 59 | 1028.9 |
| 20260510051612 | 65 | 274 | 0.0 | 1.7 | 0.00 | 0.00 | 0.00 | 58 | 1028.8 |
| 20260510050528 | 66 | 99 | 0.9 | 1.7 | 0.00 | 0.00 | 0.00 | 57 | 1028.8 |
| 20260510045545 | 66 | 274 | 0.9 | 1.7 | 0.00 | 0.00 | 0.00 | 58 | 1028.9 |
| 20260510044521 | 64 | 218 | 0.9 | 1.7 | 0.00 | 0.00 | 0.00 | 59 | 1028.9 |
| 20260510043517 | 64 | 235 | 0.0 | 0.9 | 0.00 | 0.00 | 0.00 | 59 | 1028.9 |
| 20260510042533 | 65 | 92 | 0.0 | 0.9 | 0.00 | 0.00 | 0.00 | 60 | 1028.9 |
| 20260510041538 | 65 | 244 | 0.0 | 2.6 | 0.00 | 0.00 | 0.00 | 59 | 1028.9 |
| 20260510040525 | 64 | 205 | 0.0 | 0.9 | 0.00 | 0.00 | 0.00 | 60 | 1028.9 |
| 20260510035522 | 64 | 78 | 1.7 | 2.6 | 0.00 | 0.00 | 0.00 | 60 | 1029.0 |
| 20260510034518 | 65 | 234 | 0.9 | 2.6 | 0.00 | 0.00 | 0.00 | 58 | 1029.2 |
| 20260510033555 | 68 | 258 | 0.0 | 1.7 | 0.00 | 0.00 | 0.00 | 55 | 1029.3 |
| 20260510032530 | 68 | 59 | 0.9 | 1.7 | 0.00 | 0.00 | 0.00 | 56 | 1029.4 |
| 20260510031527 | 65 | 79 | 0.9 | 1.7 | 0.00 | 0.00 | 0.00 | 61 | 1029.4 |
| 20260510030522 | 65 | 85 | 1.7 | 2.6 | 0.00 | 0.00 | 0.00 | 60 | 1029.5 |
| 20260510025540 | 65 | 79 | 0.9 | 1.7 | 0.00 | 0.00 | 0.00 | 60 | 1029.6 |
| 20260510023023 | 64 | 48 | 0.0 | 1.7 | 0.00 | 0.01 | 0.00 | 61 | 1030.2 |
| 20260510022019 | 65 | 65 | 0.9 | 2.6 | 0.00 | 0.01 | 0.00 | 61 | 1030.3 |
| 20260510021035 | 64 | 148 | 0.0 | 0.9 | 0.00 | 0.01 | 0.00 | 61 | 1030.4 |
| 20260510020032 | 64 | 70 | 0.9 | 2.6 | 0.00 | 0.01 | 0.00 | 62 | 1030.6 |
| 20260510015028 | 63 | 255 | 0.0 | 1.7 | 0.00 | 0.01 | 0.00 | 61 | 1030.6 |
| 20260510014025 | 63 | 36 | 0.0 | 1.7 | 0.00 | 0.01 | 0.00 | 63 | 1030.8 |
| 20260510013041 | 62 | 255 | 0.0 | 0.9 | 0.00 | 0.01 | 0.00 | 64 | 1030.7 |
| 20260510012018 | 62 | 76 | 0.9 | 1.7 | 0.00 | 0.01 | 0.00 | 66 | 1030.8 |
| 20260510011034 | 61 | 77 | 0.0 | 0.9 | 0.00 | 0.01 | 0.00 | 66 | 1030.8 |
| 20260510010030 | 60 | 84 | 0.0 | 1.7 | 0.00 | 0.01 | 0.00 | 68 | 1030.8 |
| 20260510005027 | 60 | 84 | 1.7 | 2.6 | 0.00 | 0.01 | 0.00 | 68 | 1030.8 |
| 20260510004103 | 60 | 87 | 0.9 | 2.6 | 0.00 | 0.01 | 0.00 | 71 | 1030.8 |
| 20260510003019 | 60 | 81 | 0.9 | 3.5 | 0.00 | 0.01 | 0.00 | 71 | 1030.8 |
| 20260510002056 | 60 | 74 | 0.9 | 0.9 | 0.00 | 0.01 | 0.00 | 73 | 1030.8 |
| 20260510001032 | 60 | 89 | 0.9 | 2.6 | 0.00 | 0.01 | 0.00 | 75 | 1030.9 |
| 20260510000028 | 59 | 88 | 0.9 | 2.6 | 0.00 | 0.01 | 0.00 | 80 | 1030.9 |
| 20260509235024 | 58 | 85 | 0.0 | 1.7 | 0.00 | 0.01 | 0.00 | 85 | 1030.9 |
| 20260509234021 | 57 | 88 | 0.9 | 1.7 | 0.00 | 0.01 | 0.00 | 89 | 1031.0 |
| 20260509233017 | 57 | 0.0 | 0.0 | 0.00 | 0.01 | 0.00 | 92 | 1030.9 | |
| 20260509232034 | 56 | 0.0 | 0.0 | 0.00 | 0.01 | 0.00 | 94 | 1031.0 | |
| 20260509231030 | 55 | 0.0 | 0.0 | 0.00 | 0.01 | 0.00 | 95 | 1030.8 | |
| 20260509230027 | 55 | 0.0 | 0.0 | 0.00 | 0.01 | 0.00 | 96 | 1030.8 | |
| 20260509225023 | 54 | 0.0 | 0.0 | 0.00 | 0.01 | 0.00 | 96 | 1030.7 | |
| 20260509224040 | 53 | 0.0 | 0.0 | 0.00 | 0.01 | 0.00 | 96 | 1030.6 | |
| 20260509223056 | 53 | 0.0 | 0.0 | 0.00 | 0.01 | 0.00 | 96 | 1030.5 | |
| 20260509222035 | 52 | 0.0 | 0.0 | 0.00 | 0.01 | 0.00 | 96 | 1030.3 | |
| 20260509221029 | 52 | 0.0 | 0.0 | 0.00 | 0.01 | 0.00 | 96 | 1030.3 | |
| 20260509220025 | 52 | 0.0 | 0.0 | 0.00 | 0.01 | 0.00 | 96 | 1030.1 | |
| 20260509215022 | 51 | 0.0 | 0.0 | 0.00 | 0.01 | 0.00 | 96 | 1030.0 | |
| 20260509214019 | 51 | 0.0 | 0.0 | 0.00 | 0.01 | 0.00 | 96 | 1029.8 | |
| 20260509213035 | 51 | 0.0 | 0.0 | 0.00 | 0.01 | 0.00 | 96 | 1029.7 | |
| 20260509212032 | 51 | 0.0 | 0.0 | 0.00 | 0.01 | 0.00 | 96 | 1029.6 | |
| 20260509211028 | 50 | 0.0 | 0.0 | 0.00 | 0.01 | 0.00 | 96 | 1029.6 | |
| 20260509210024 | 50 | 0.0 | 0.0 | 0.00 | 0.01 | 0.00 | 96 | 1029.5 | |
| 20260509205021 | 49 | 0.0 | 0.0 | 0.00 | 0.01 | 0.00 | 96 | 1029.4 | |
| 20260509204017 | 49 | 0.0 | 0.0 | 0.00 | 0.01 | 0.00 | 96 | 1029.3 | |
| 20260509203033 | 49 | 0.0 | 0.0 | 0.00 | 0.01 | 0.00 | 96 | 1029.3 | |
| 20260509202030 | 48 | 92 | 0.0 | 0.9 | 0.00 | 0.01 | 0.00 | 96 | 1029.3 |
| 20260509201026 | 47 | 0.0 | 0.0 | 0.00 | 0.01 | 0.00 | 96 | 1029.1 | |
| 20260509200023 | 47 | 0.0 | 0.0 | 0.00 | 0.01 | 0.00 | 96 | 1029.1 | |
| 20260509195019 | 47 | 0.0 | 0.0 | 0.00 | 0.01 | 0.00 | 96 | 1029.0 | |
| 20260509194056 | 47 | 0.0 | 0.0 | 0.00 | 0.01 | 0.00 | 96 | 1028.9 | |
| 20260509193052 | 47 | 0.0 | 0.0 | 0.00 | 0.01 | 0.00 | 96 | 1028.9 | |
| 20260509192049 | 48 | 0.0 | 0.0 | 0.00 | 0.01 | 0.00 | 96 | 1028.8 | |
| 20260509191025 | 48 | 0.0 | 0.0 | 0.00 | 0.01 | 0.00 | 96 | 1028.8 | |
| 20260509190021 | 48 | 0.0 | 0.0 | 0.00 | 0.01 | 0.00 | 96 | 1028.7 | |
| 20260509185017 | 48 | 0.0 | 0.0 | 0.00 | 0.01 | 0.00 | 95 | 1028.6 | |
| 20260509184034 | 48 | 0.0 | 0.0 | 0.00 | 0.01 | 0.00 | 95 | 1028.5 | |
| 20260509183031 | 48 | 0.0 | 0.0 | 0.00 | 0.01 | 0.00 | 95 | 1028.6 | |
| 20260509182027 | 48 | 0.0 | 0.0 | 0.00 | 0.01 | 0.00 | 95 | 1028.6 | |
| 20260509181023 | 48 | 0.0 | 0.0 | 0.00 | 0.01 | 0.00 | 95 | 1028.6 | |
| 20260509180020 | 49 | 0.0 | 0.0 | 0.00 | 0.01 | 0.00 | 95 | 1028.5 | |
| 20260509175036 | 49 | 0.0 | 0.0 | 0.00 | 0.01 | 0.00 | 95 | 1028.6 | |
| 20260509174032 | 49 | 0.0 | 0.0 | 0.00 | 0.01 | 0.00 | 95 | 1028.5 | |
| 20260509173029 | 49 | 0.0 | 0.0 | 0.00 | 0.01 | 0.00 | 95 | 1028.5 | |
| 20260509172026 | 49 | 0.0 | 0.0 | 0.00 | 0.01 | 0.00 | 95 | 1028.5 | |
| 20260509171022 | 50 | 90 | 0.0 | 0.9 | 0.00 | 0.01 | 0.00 | 95 | 1028.6 |
| 20260509170018 | 51 | 192 | 0.0 | 0.9 | 0.00 | 0.01 | 0.00 | 95 | 1028.6 |
| 20260509165035 | 51 | 91 | 0.0 | 0.9 | 0.00 | 0.01 | 0.00 | 95 | 1028.6 |
| 20260509164031 | 50 | 0.0 | 0.0 | 0.00 | 0.01 | 0.00 | 95 | 1028.7 | |
| 20260509163028 | 50 | 91 | 0.0 | 0.9 | 0.00 | 0.01 | 0.00 | 95 | 1028.9 |
| 20260509162024 | 50 | 91 | 0.0 | 1.7 | 0.00 | 0.01 | 0.00 | 95 | 1028.9 |
| 20260509161021 | 50 | 186 | 0.0 | 0.9 | 0.00 | 0.01 | 0.00 | 95 | 1029.0 |
| 20260509160017 | 50 | 0.0 | 0.0 | 0.00 | 0.01 | 0.00 | 95 | 1029.0 | |
| 20260509155034 | 50 | 0.0 | 0.0 | 0.00 | 0.01 | 0.00 | 94 | 1029.0 | |
| 20260509154031 | 50 | 0.0 | 0.0 | 0.00 | 0.01 | 0.00 | 94 | 1029.1 | |
| 20260509153047 | 51 | 0.0 | 0.0 | 0.00 | 0.01 | 0.00 | 94 | 1029.0 | |
| 20260509152024 | 51 | 0.0 | 0.0 | 0.00 | 0.01 | 0.00 | 94 | 1029.1 | |
| 20260509151020 | 50 | 0.0 | 0.0 | 0.00 | 0.01 | 0.00 | 94 | 1029.1 | |
| 20260509150036 | 50 | 0.0 | 0.0 | 0.00 | 0.01 | 0.00 | 94 | 1029.1 | |
| 20260509145033 | 50 | 0.0 | 0.0 | 0.00 | 0.01 | 0.00 | 94 | 1029.3 | |
| 20260509144109 | 49 | 186 | 0.0 | 0.9 | 0.00 | 0.01 | 0.00 | 94 | 1029.2 |
| 20260509143026 | 49 | 0.0 | 0.0 | 0.00 | 0.01 | 0.01 | 94 | 1029.3 | |
| 20260509142022 | 49 | 0.0 | 0.0 | 0.00 | 0.01 | 0.01 | 94 | 1029.3 | |
| 20260509141018 | 49 | 0.0 | 0.0 | 0.00 | 0.01 | 0.01 | 93 | 1029.4 | |
| 20260509140035 | 50 | 0.0 | 0.0 | 0.00 | 0.01 | 0.01 | 93 | 1029.4 | |
| 20260509135032 | 50 | 0.0 | 0.0 | 0.00 | 0.01 | 0.01 | 93 | 1029.3 | |
| 20260509134028 | 51 | 186 | 0.0 | 0.9 | 0.00 | 0.01 | 0.01 | 93 | 1029.3 |
| 20260509133025 | 50 | 0.0 | 0.0 | 0.00 | 0.01 | 0.01 | 93 | 1029.4 | |
| 20260509132021 | 51 | 0.0 | 0.0 | 0.00 | 0.01 | 0.01 | 93 | 1029.4 | |
| 20260509131017 | 51 | 84 | 0.0 | 0.9 | 0.00 | 0.01 | 0.01 | 93 | 1029.3 |
| 20260509130034 | 51 | 84 | 0.0 | 0.9 | 0.00 | 0.01 | 0.01 | 93 | 1029.4 |
| 20260509125031 | 51 | 0.0 | 0.0 | 0.00 | 0.01 | 0.01 | 93 | 1029.5 | |
| 20260509124027 | 51 | 0.0 | 0.0 | 0.00 | 0.01 | 0.01 | 92 | 1029.5 | |
| 20260509123023 | 51 | 73 | 0.0 | 0.9 | 0.00 | 0.01 | 0.01 | 92 | 1029.5 |
| 20260509122020 | 51 | 0.0 | 0.0 | 0.00 | 0.01 | 0.01 | 92 | 1029.5 | |
| 20260509121036 | 51 | 0.0 | 0.0 | 0.00 | 0.01 | 0.01 | 92 | 1029.3 | |
| 20260509120032 | 51 | 0.0 | 0.0 | 0.00 | 0.01 | 0.01 | 92 | 1029.3 | |
| 20260509115029 | 52 | 0.0 | 0.0 | 0.00 | 0.01 | 0.01 | 92 | 1029.3 | |
| 20260509114026 | 52 | 0.0 | 0.0 | 0.00 | 0.01 | 0.01 | 92 | 1029.1 | |
| 20260509113043 | 52 | 0.0 | 0.0 | 0.00 | 0.01 | 0.01 | 91 | 1029.2 | |
| 20260509112018 | 52 | 0.0 | 0.0 | 0.00 | 0.01 | 0.01 | 91 | 1029.3 | |
| 20260509111055 | 52 | 0.0 | 0.0 | 0.00 | 0.01 | 0.01 | 91 | 1029.3 | |
| 20260509110031 | 53 | 0.0 | 0.0 | 0.00 | 0.01 | 0.01 | 91 | 1029.4 | |
| 20260509105048 | 53 | 0.0 | 0.0 | 0.00 | 0.01 | 0.01 | 91 | 1029.3 | |
| 20260509104024 | 53 | 0.0 | 0.0 | 0.00 | 0.01 | 0.01 | 90 | 1029.2 | |
| 20260509103021 | 54 | 0.0 | 0.0 | 0.00 | 0.01 | 0.01 | 91 | 1029.2 | |
| 20260509102017 | 54 | 0.0 | 0.0 | 0.00 | 0.01 | 0.01 | 91 | 1029.2 | |
| 20260509101033 | 55 | 0.0 | 0.0 | 0.00 | 0.01 | 0.01 | 91 | 1029.3 | |
| 20260509100030 | 55 | 210 | 0.0 | 0.9 | 0.00 | 0.01 | 0.01 | 92 | 1029.1 |